createdAt,value
2022-09-02T00:00:34.833Z,1.70
2022-09-02T00:03:01.874Z,1.50
2022-09-02T00:05:30.135Z,1.45
2022-09-02T00:07:56.891Z,1.80
2022-09-02T00:10:23.662Z,1.63
2022-09-02T00:12:50.410Z,1.52
2022-09-02T00:15:17.187Z,1.75
2022-09-02T00:17:43.922Z,1.73
2022-09-02T00:20:10.707Z,1.55
2022-09-02T00:22:38.915Z,1.80
2022-09-02T00:25:06.955Z,1.73
2022-09-02T00:27:33.755Z,1.90
2022-09-02T00:30:00.517Z,1.60
2022-09-02T00:32:28.595Z,1.88
2022-09-02T00:34:55.334Z,2.05
2022-09-02T00:37:22.099Z,1.80
2022-09-02T00:39:50.368Z,1.65
2022-09-02T00:42:17.156Z,1.92
2022-09-02T00:44:43.954Z,1.73
2022-09-02T00:47:10.702Z,1.50
2022-09-02T00:49:41.370Z,1.50
2022-09-02T00:52:12.839Z,1.30
2022-09-02T00:54:43.885Z,1.40
2022-09-02T00:57:14.913Z,1.70
2022-09-02T00:59:46.606Z,1.60
2022-09-02T01:02:14.044Z,1.58
2022-09-02T01:04:41.339Z,1.83
2022-09-02T01:07:08.320Z,1.63
2022-09-02T01:09:35.265Z,1.65
2022-09-02T01:12:02.711Z,1.70
2022-09-02T01:14:31.223Z,1.48
2022-09-02T01:17:00.338Z,1.58
2022-09-02T01:19:32.230Z,1.45
2022-09-02T01:22:00.487Z,1.67
2022-09-02T01:24:30.186Z,1.67
2022-09-02T01:26:58.977Z,1.90
2022-09-02T01:29:27.146Z,1.80
2022-09-02T01:31:54.130Z,1.60
2022-09-02T01:34:21.026Z,1.60
2022-09-02T01:36:47.814Z,1.88
2022-09-02T01:39:16.389Z,1.45
2022-09-02T01:41:44.062Z,1.60
2022-09-02T01:44:10.924Z,1.70
2022-09-02T01:46:37.922Z,1.50
2022-09-02T01:49:04.960Z,1.67
2022-09-02T01:51:31.837Z,1.73
2022-09-02T01:53:58.622Z,1.70
2022-09-02T01:56:26.731Z,1.75
2022-09-02T01:58:53.539Z,1.60
2022-09-02T02:01:20.663Z,1.55
2022-09-02T02:03:47.853Z,2.00
2022-09-02T02:06:17.039Z,1.85
2022-09-02T02:08:44.579Z,1.95
2022-09-02T02:11:11.348Z,1.92
2022-09-02T02:13:39.453Z,2.33
2022-09-02T02:16:06.757Z,1.73
2022-09-02T02:18:33.610Z,1.58
2022-09-02T02:21:00.417Z,2.05
2022-09-02T02:23:27.140Z,1.90
2022-09-02T02:25:53.934Z,1.70
2022-09-02T02:28:20.675Z,2.15
2022-09-02T02:30:48.806Z,2.15
2022-09-02T02:33:16.034Z,1.80
2022-09-02T02:35:43.432Z,2.05
2022-09-02T02:38:10.158Z,2.00
2022-09-02T02:40:41.325Z,1.92
2022-09-02T02:43:08.154Z,2.08
2022-09-02T02:45:34.930Z,1.92
2022-09-02T02:48:03.421Z,1.92
2022-09-02T02:50:30.242Z,2.33
2022-09-02T02:52:57.139Z,2.05
2022-09-02T02:55:24.866Z,1.90
2022-09-02T02:57:51.838Z,2.17
2022-09-02T03:00:21.227Z,2.40
2022-09-02T03:02:48.378Z,2.00
2022-09-02T03:05:18.170Z,1.80
2022-09-02T03:07:44.906Z,1.65
2022-09-02T03:10:13.317Z,1.98
2022-09-02T03:12:41.068Z,2.33
2022-09-02T03:15:09.575Z,1.83
2022-09-02T03:17:36.418Z,2.00
2022-09-02T03:20:04.966Z,1.88
2022-09-02T03:22:33.215Z,1.95
2022-09-02T03:24:59.965Z,1.70
2022-09-02T03:27:26.723Z,1.85
2022-09-02T03:29:55.733Z,1.70
2022-09-02T03:32:22.462Z,1.80
2022-09-02T03:34:53.069Z,2.05
2022-09-02T03:37:19.967Z,2.13
2022-09-02T03:39:48.043Z,2.20
2022-09-02T03:42:19.544Z,1.95
2022-09-02T03:44:46.891Z,1.60
2022-09-02T03:47:13.622Z,1.60
2022-09-02T03:49:40.701Z,2.10
2022-09-02T03:52:10.496Z,1.80
2022-09-02T03:54:37.225Z,1.70
2022-09-02T03:57:06.039Z,1.70
2022-09-02T03:59:32.783Z,1.60
2022-09-02T04:02:01.548Z,1.73
2022-09-02T04:04:28.863Z,1.60
2022-09-02T04:06:56.030Z,1.83
2022-09-02T04:09:22.767Z,2.35
2022-09-02T04:11:49.547Z,2.20
2022-09-02T04:14:17.725Z,1.90
2022-09-02T04:16:44.769Z,1.88
2022-09-02T04:19:11.510Z,1.92
2022-09-02T04:21:39.562Z,2.10
2022-09-02T04:24:07.921Z,2.20
2022-09-02T04:26:35.246Z,1.92
2022-09-02T04:29:02.381Z,1.83
2022-09-02T04:31:30.954Z,2.08
2022-09-02T04:33:58.402Z,1.80
2022-09-02T04:36:26.266Z,2.17
2022-09-02T04:38:58.801Z,1.90
2022-09-02T04:41:28.166Z,1.90
2022-09-02T04:43:56.075Z,1.95
2022-09-02T04:46:29.694Z,1.98
2022-09-02T04:49:03.285Z,2.00
2022-09-02T04:51:30.257Z,1.83
2022-09-02T04:53:57.254Z,2.22
2022-09-02T04:56:26.699Z,2.15
2022-09-02T04:58:53.928Z,2.42
2022-09-02T05:01:23.271Z,1.98
2022-09-02T05:03:50.313Z,2.28
2022-09-02T05:06:20.477Z,2.05
2022-09-02T05:08:47.351Z,2.03
2022-09-02T05:11:16.642Z,2.20
2022-09-02T05:13:43.358Z,2.10
2022-09-02T05:16:10.167Z,2.20
2022-09-02T05:18:36.929Z,2.78
2022-09-02T05:21:05.357Z,2.15
2022-09-02T05:23:33.848Z,2.17
2022-09-02T05:26:03.722Z,1.95
2022-09-02T05:28:30.440Z,2.55
2022-09-02T05:31:04.017Z,2.25
2022-09-02T05:33:30.990Z,2.85
2022-09-02T05:35:57.872Z,2.20
2022-09-02T05:38:24.609Z,2.20
2022-09-02T05:40:52.732Z,2.33
2022-09-02T05:43:19.534Z,2.10
2022-09-02T05:45:46.288Z,2.15
2022-09-02T05:48:13.049Z,1.80
2022-09-02T05:50:39.801Z,2.20
2022-09-02T05:53:08.958Z,2.05
2022-09-02T05:55:39.168Z,1.85
2022-09-02T05:58:07.879Z,2.08
2022-09-02T06:00:34.620Z,2.10
2022-09-02T06:03:01.384Z,1.90
2022-09-02T06:05:28.218Z,2.05
2022-09-02T06:07:54.937Z,2.20
2022-09-02T06:10:21.678Z,1.95
2022-09-02T06:12:48.437Z,2.20
2022-09-02T06:15:16.658Z,2.38
2022-09-02T06:17:43.385Z,2.15
2022-09-02T06:20:11.314Z,1.85
2022-09-02T06:22:38.753Z,1.95
2022-09-02T06:25:06.246Z,1.77
2022-09-02T06:27:32.963Z,2.03
2022-09-02T06:29:59.720Z,2.22
2022-09-02T06:32:27.781Z,2.40
2022-09-02T06:34:54.544Z,2.05
2022-09-02T06:37:21.301Z,1.98
2022-09-02T06:39:48.046Z,2.00
2022-09-02T06:42:14.759Z,1.83
2022-09-02T06:44:41.499Z,1.98
2022-09-02T06:47:08.265Z,2.03
2022-09-02T06:49:36.324Z,1.95
2022-09-02T06:52:03.592Z,1.90
2022-09-02T06:54:30.373Z,1.98
2022-09-02T06:56:57.127Z,2.08
2022-09-02T06:59:23.894Z,1.83
2022-09-02T07:01:51.185Z,2.08
2022-09-02T07:04:18.237Z,1.85
2022-09-02T07:06:49.453Z,1.92
2022-09-02T07:09:19.430Z,1.90
2022-09-02T07:11:46.813Z,1.45
2022-09-02T07:14:14.445Z,1.90
2022-09-02T07:16:44.274Z,2.10
2022-09-02T07:19:16.106Z,1.80
2022-09-02T07:21:46.796Z,1.80
2022-09-02T07:24:14.326Z,1.90
2022-09-02T07:26:41.793Z,1.80
2022-09-02T07:29:09.370Z,1.50
2022-09-02T07:31:38.075Z,1.65
2022-09-02T07:34:05.779Z,1.73
2022-09-02T07:36:32.785Z,2.35
2022-09-02T07:39:00.847Z,1.42
2022-09-02T07:41:27.872Z,1.80
2022-09-02T07:43:59.420Z,2.00
2022-09-02T07:46:27.113Z,1.88
2022-09-02T07:48:53.897Z,1.88
2022-09-02T07:51:20.634Z,1.70
2022-09-02T07:53:47.602Z,1.80
2022-09-02T07:56:15.691Z,1.95
2022-09-02T07:58:43.860Z,1.70
2022-09-02T08:01:11.145Z,1.63
2022-09-02T08:03:40.763Z,1.83
2022-09-02T08:06:08.291Z,1.67
2022-09-02T08:08:35.009Z,1.60
2022-09-02T08:13:36.188Z,1.40
2022-09-02T08:16:03.387Z,1.75
2022-09-02T08:18:32.312Z,1.55
2022-09-02T08:20:59.080Z,1.45
2022-09-02T08:23:36.606Z,1.73
2022-09-02T08:26:04.409Z,1.52
2022-09-02T08:28:31.136Z,1.70
2022-09-02T08:30:59.334Z,1.60
2022-09-02T08:33:26.451Z,1.02
2022-09-02T08:35:53.218Z,2.05
2022-09-02T08:38:20.043Z,1.38
2022-09-02T08:40:46.864Z,1.35
2022-09-02T08:43:27.906Z,1.42
2022-09-02T08:45:56.804Z,1.08
2022-09-02T08:48:34.317Z,1.00
2022-09-02T08:51:03.863Z,1.27
2022-09-02T08:53:35.196Z,1.10
2022-09-02T08:56:05.196Z,1.10
2022-09-02T08:58:38.822Z,1.40
2022-09-02T09:01:12.910Z,1.20
2022-09-02T09:06:19.135Z,0.98
2022-09-02T09:08:52.795Z,1.02
2022-09-02T09:11:28.603Z,0.98
2022-09-02T09:14:17.929Z,1.00
2022-09-02T09:16:53.599Z,0.90
2022-09-02T09:19:34.371Z,1.10
2022-09-02T09:22:01.347Z,1.20
2022-09-02T09:24:35.031Z,3.47
2022-09-02T09:27:04.267Z,5.85
2022-09-02T09:29:32.801Z,1.23
2022-09-02T09:32:00.983Z,1.00
2022-09-02T09:34:57.077Z,1.20
2022-09-02T09:37:33.902Z,1.38
2022-09-02T09:40:25.453Z,1.15
2022-09-02T09:42:55.865Z,0.95
2022-09-02T09:45:31.350Z,1.33
2022-09-02T09:48:21.727Z,1.13
2022-09-02T09:51:10.584Z,0.93
2022-09-02T09:53:37.850Z,1.00
2022-09-02T09:56:06.494Z,1.10
2022-09-02T09:58:35.540Z,1.10
2022-09-02T10:01:11.687Z,1.10
2022-09-02T10:03:42.834Z,0.70
2022-09-02T10:06:20.869Z,1.20
2022-09-02T10:08:53.206Z,1.20
2022-09-02T10:11:23.675Z,1.00
2022-09-02T10:13:50.520Z,0.80
2022-09-02T10:16:31.421Z,1.10
2022-09-02T10:19:05.620Z,0.90
2022-09-02T10:24:26.852Z,0.88
2022-09-02T10:26:57.761Z,0.90
2022-09-02T10:29:49.263Z,0.90
2022-09-02T10:32:56.423Z,0.73
2022-09-02T10:35:33.461Z,1.20
2022-09-02T10:38:11.070Z,0.90
2022-09-02T10:40:44.403Z,1.05
2022-09-02T10:43:25.844Z,1.10
2022-09-02T10:45:57.890Z,1.00
2022-09-02T10:48:40.493Z,0.85
2022-09-02T10:51:15.279Z,0.90
2022-09-02T10:53:59.154Z,0.90
2022-09-02T10:56:31.078Z,1.02
2022-09-02T10:59:04.735Z,0.70
2022-09-02T11:01:35.239Z,1.08
2022-09-02T11:04:08.514Z,1.05
2022-09-02T11:06:58.815Z,0.97
2022-09-02T11:09:32.789Z,1.00
2022-09-02T11:12:06.797Z,0.70
2022-09-02T11:14:37.233Z,1.08
2022-09-02T11:17:13.168Z,0.85
2022-09-02T11:19:43.900Z,0.80
2022-09-02T11:22:24.178Z,1.00
2022-09-02T11:25:00.732Z,0.80
2022-09-02T11:27:42.108Z,0.80
2022-09-02T11:30:13.228Z,0.90
2022-09-02T11:32:45.564Z,1.08
2022-09-02T11:35:18.173Z,0.85
2022-09-02T11:37:49.648Z,0.60
2022-09-02T11:40:34.200Z,0.95
2022-09-02T11:43:23.355Z,0.80
2022-09-02T11:46:06.903Z,0.77
2022-09-02T11:48:57.137Z,0.77
2022-09-02T11:51:44.586Z,0.82
2022-09-02T11:54:15.670Z,0.77
2022-09-02T11:56:47.134Z,0.60
2022-09-02T11:59:20.892Z,0.75
2022-09-02T12:01:51.217Z,0.70
2022-09-02T12:07:26.840Z,1.20
2022-09-02T12:09:59.483Z,0.95
2022-09-02T12:13:03.722Z,0.93
2022-09-02T12:15:35.574Z,0.75
2022-09-02T12:18:26.288Z,0.88
2022-09-02T12:21:16.017Z,0.85
2022-09-02T12:24:09.167Z,1.10
2022-09-02T12:27:06.120Z,0.80
2022-09-02T12:29:34.869Z,1.10
2022-09-02T12:32:01.970Z,0.98
2022-09-02T12:34:53.952Z,0.73
2022-09-02T12:37:51.730Z,0.70
2022-09-02T12:40:31.358Z,1.00
2022-09-02T12:43:03.744Z,1.00
2022-09-02T12:45:33.998Z,0.70
2022-09-02T12:48:08.037Z,0.73
2022-09-02T12:50:53.858Z,0.98
2022-09-02T12:53:35.414Z,0.77
2022-09-02T12:56:04.978Z,1.65
2022-09-02T12:58:35.524Z,0.65
2022-09-02T13:01:13.181Z,1.13
2022-09-02T13:03:56.923Z,0.80
2022-09-02T13:06:34.382Z,1.05
2022-09-02T13:09:33.116Z,0.82
2022-09-02T13:12:31.398Z,0.90
2022-09-02T13:15:23.137Z,1.20
2022-09-02T13:18:25.915Z,0.80
2022-09-02T13:21:20.206Z,1.00
2022-09-02T13:24:11.039Z,0.60
2022-09-02T13:26:54.647Z,0.80
2022-09-02T13:29:50.009Z,0.90
2022-09-02T13:32:23.115Z,2.53
2022-09-02T13:34:53.173Z,0.90
2022-09-02T13:37:36.790Z,0.80
2022-09-02T13:40:07.371Z,0.93
2022-09-02T13:42:34.190Z,0.98
2022-09-02T13:45:14.881Z,0.73
2022-09-02T13:47:43.819Z,1.00
2022-09-02T13:50:14.614Z,0.80
2022-09-02T13:53:49.158Z,0.98
2022-09-02T13:55:30.694Z,0.63
2022-09-02T13:58:00.256Z,0.70
2022-09-02T14:00:33.297Z,0.70
2022-09-02T14:03:03.589Z,0.68
2022-09-02T14:05:33.934Z,0.80
2022-09-02T14:08:02.992Z,0.73
2022-09-02T14:10:31.415Z,0.90
2022-09-02T14:13:01.527Z,0.90
2022-09-02T14:15:30.175Z,0.75
2022-09-02T14:18:18.066Z,0.70
2022-09-02T14:21:03.954Z,0.63
2022-09-02T14:23:32.589Z,0.80
2022-09-02T14:26:00.971Z,0.80
2022-09-02T14:28:31.066Z,0.98
2022-09-02T14:31:00.881Z,0.77
2022-09-02T14:33:40.794Z,0.80
2022-09-02T14:36:12.619Z,0.70
2022-09-02T14:38:51.396Z,0.80
2022-09-02T14:41:22.763Z,0.73
2022-09-02T14:43:51.719Z,0.63
2022-09-02T14:46:27.970Z,0.70
2022-09-02T14:49:00.717Z,0.73
2022-09-02T14:51:35.046Z,0.73
2022-09-02T14:54:03.040Z,0.70
2022-09-02T14:56:48.363Z,0.70
2022-09-02T14:59:16.863Z,0.90
2022-09-02T15:01:47.714Z,0.60
2022-09-02T15:04:16.734Z,0.80
2022-09-02T15:06:46.335Z,0.75
2022-09-02T15:09:16.589Z,0.70
2022-09-02T15:11:48.031Z,0.88
2022-09-02T15:14:16.388Z,0.80
2022-09-02T15:16:43.531Z,0.73
2022-09-02T15:19:10.806Z,0.80
2022-09-02T15:21:37.931Z,0.90
2022-09-02T15:24:07.752Z,0.80
2022-09-02T15:26:35.042Z,0.60
2022-09-02T15:29:02.314Z,0.80
2022-09-02T15:31:30.095Z,0.80
2022-09-02T15:33:57.531Z,0.70
2022-09-02T15:36:24.793Z,0.80
2022-09-02T15:38:51.944Z,1.00
2022-09-02T15:41:22.169Z,0.68
2022-09-02T15:43:51.355Z,0.68
2022-09-02T15:46:25.731Z,0.70
2022-09-02T15:48:55.285Z,0.75
2022-09-02T15:51:24.865Z,1.23
2022-09-02T15:53:56.436Z,0.85
2022-09-02T15:56:26.641Z,0.70
2022-09-02T15:58:58.684Z,0.70
2022-09-02T16:01:26.921Z,1.65
2022-09-02T16:03:54.583Z,0.80
2022-09-02T16:06:21.987Z,0.77
2022-09-02T16:08:49.340Z,1.05
2022-09-02T16:11:16.947Z,0.80
2022-09-02T16:13:45.584Z,0.80
2022-09-02T16:16:13.292Z,0.60
2022-09-02T16:18:41.568Z,0.80
2022-09-02T16:21:10.604Z,0.73
2022-09-02T16:23:37.773Z,1.00
2022-09-02T16:26:09.963Z,0.90
2022-09-02T16:28:37.621Z,1.00
2022-09-02T16:31:07.865Z,0.60
2022-09-02T16:33:35.870Z,1.98
2022-09-02T16:36:03.501Z,0.90
2022-09-02T16:38:30.613Z,0.82
2022-09-02T16:40:57.933Z,1.00
2022-09-02T16:43:25.442Z,0.65
2022-09-02T16:45:52.778Z,0.65
2022-09-02T16:48:25.666Z,0.70
2022-09-02T16:50:52.652Z,0.90
2022-09-02T16:53:19.389Z,0.93
2022-09-02T16:55:46.724Z,0.75
2022-09-02T16:58:14.002Z,0.77
2022-09-02T17:00:41.430Z,0.90
2022-09-02T17:03:09.824Z,1.05
2022-09-02T17:05:38.262Z,0.73
2022-09-02T17:08:05.565Z,0.80
2022-09-02T17:10:33.837Z,0.65
2022-09-02T17:13:00.816Z,1.05
2022-09-02T17:15:28.970Z,1.40
2022-09-02T17:17:56.541Z,1.10
2022-09-02T17:20:24.049Z,0.90
2022-09-02T17:22:52.121Z,1.23
2022-09-02T17:25:19.159Z,0.70
2022-09-02T17:27:45.924Z,0.90
2022-09-02T17:30:13.044Z,0.85
2022-09-02T17:32:40.721Z,0.88
2022-09-02T17:35:09.429Z,1.15
2022-09-02T17:37:36.608Z,0.68
2022-09-02T17:40:12.936Z,0.77
2022-09-02T17:42:39.852Z,0.77
2022-09-02T17:45:07.241Z,0.85
2022-09-02T17:47:33.982Z,0.90
2022-09-02T17:50:00.730Z,0.93
2022-09-02T17:52:27.511Z,1.08
2022-09-02T17:54:54.280Z,1.50
2022-09-02T17:57:41.783Z,0.80
2022-09-02T18:00:11.293Z,0.77
2022-09-02T18:03:31.835Z,0.80
2022-09-02T18:06:07.000Z,0.73
2022-09-02T18:08:39.419Z,0.80
2022-09-02T18:11:06.577Z,0.50
2022-09-02T18:13:43.736Z,0.90
2022-09-02T18:16:30.580Z,1.02
2022-09-02T18:19:13.128Z,0.77
2022-09-02T18:21:52.806Z,1.08
2022-09-02T18:24:32.711Z,0.75
2022-09-02T18:27:10.152Z,1.10
2022-09-02T18:29:54.470Z,1.23
2022-09-02T18:32:38.284Z,1.67
2022-09-02T18:35:15.739Z,1.77
2022-09-02T18:37:50.953Z,0.98
2022-09-02T18:40:27.557Z,1.20
2022-09-02T18:43:04.213Z,0.82
2022-09-02T18:45:35.167Z,1.38
2022-09-02T18:48:06.422Z,1.20
2022-09-02T18:50:52.468Z,1.33
2022-09-02T18:53:22.512Z,1.20
2022-09-02T18:55:51.087Z,1.00
2022-09-02T18:58:30.320Z,1.23
2022-09-02T19:01:02.596Z,1.30
2022-09-02T19:03:34.967Z,1.20
2022-09-02T19:06:04.728Z,1.13
2022-09-02T19:08:32.892Z,1.13
2022-09-02T19:11:02.388Z,0.90
2022-09-02T19:13:30.726Z,0.73
2022-09-02T19:16:02.720Z,0.90
2022-09-02T19:20:58.682Z,1.05
2022-09-02T19:23:26.338Z,1.00
2022-09-02T19:25:53.469Z,1.08
2022-09-02T19:28:22.018Z,1.08
2022-09-02T19:30:50.644Z,1.30
2022-09-02T19:33:18.777Z,1.20
2022-09-02T19:35:49.412Z,1.13
2022-09-02T19:38:16.317Z,1.40
2022-09-02T19:40:44.617Z,1.63
2022-09-02T19:43:16.177Z,1.38
2022-09-02T19:45:45.072Z,1.70
2022-09-02T19:48:16.417Z,1.25
2022-09-02T19:50:47.449Z,1.98
2022-09-02T19:53:19.609Z,1.20
2022-09-02T19:55:47.004Z,1.00
2022-09-02T19:58:14.882Z,1.40
2022-09-02T20:00:42.879Z,1.10
2022-09-02T20:03:10.313Z,1.20
2022-09-02T20:05:38.623Z,1.30
2022-09-02T20:08:07.409Z,1.40
2022-09-02T20:10:34.175Z,0.98
2022-09-02T20:13:00.903Z,1.80
2022-09-02T20:15:27.709Z,1.58
2022-09-02T20:18:03.685Z,1.90
2022-09-02T20:20:30.773Z,1.38
2022-09-02T20:22:57.628Z,1.67
2022-09-02T20:25:31.556Z,1.40
2022-09-02T20:28:07.603Z,1.80
2022-09-02T20:30:37.982Z,1.70
2022-09-02T20:33:14.406Z,2.08
2022-09-02T20:36:07.453Z,2.22
2022-09-02T20:38:54.069Z,2.03
2022-09-02T20:41:32.515Z,1.70
2022-09-02T20:44:33.098Z,1.25
2022-09-02T20:47:16.733Z,1.70
2022-09-02T20:49:59.970Z,2.10
2022-09-02T20:52:40.354Z,1.50
2022-09-02T20:55:15.720Z,1.83
2022-09-02T20:57:58.384Z,1.75
2022-09-02T21:00:25.152Z,1.80
2022-09-02T21:02:59.553Z,1.33
2022-09-02T21:05:29.088Z,1.58
2022-09-02T21:08:01.554Z,1.65
2022-09-02T21:10:34.577Z,1.65
2022-09-02T21:13:10.001Z,1.50
2022-09-02T21:15:41.670Z,1.60
2022-09-02T21:18:14.070Z,1.40
2022-09-02T21:23:17.658Z,1.13
2022-09-02T21:25:50.426Z,1.27
2022-09-02T21:28:23.263Z,1.20
2022-09-02T21:30:57.575Z,1.30
2022-09-02T21:33:27.959Z,1.13
2022-09-02T21:35:58.017Z,1.40
2022-09-02T21:38:33.011Z,1.13
2022-09-02T21:41:15.646Z,1.50
2022-09-02T21:43:55.793Z,1.48
2022-09-02T21:46:30.280Z,1.17
2022-09-02T21:51:31.690Z,1.15
2022-09-02T21:54:18.114Z,1.30
2022-09-02T21:57:00.595Z,1.20
2022-09-02T21:59:44.702Z,1.13
2022-09-02T22:02:16.731Z,1.30
2022-09-02T22:04:54.045Z,1.10
2022-09-02T22:10:52.716Z,1.27
2022-09-02T22:13:22.607Z,1.30
2022-09-02T22:15:56.836Z,1.27
2022-09-02T22:18:35.590Z,1.27
2022-09-02T22:21:09.953Z,1.20
2022-09-02T22:23:36.769Z,1.20
2022-09-02T22:26:16.079Z,1.17
2022-09-02T22:28:46.377Z,1.25
2022-09-02T22:31:18.546Z,1.33
2022-09-02T22:33:49.660Z,1.13
2022-09-02T22:36:31.558Z,1.30
2022-09-02T22:38:58.321Z,1.23
2022-09-02T22:41:30.505Z,1.10
2022-09-02T22:44:03.907Z,1.17
2022-09-02T22:46:45.238Z,1.13
2022-09-02T22:49:16.851Z,1.02
2022-09-02T22:51:50.161Z,1.30
2022-09-02T22:54:16.980Z,1.03
2022-09-02T22:56:56.401Z,1.30
2022-09-02T22:59:33.708Z,0.90
2022-09-02T23:02:09.290Z,1.17
2022-09-02T23:04:50.980Z,1.30
2022-09-02T23:07:17.748Z,1.20
2022-09-02T23:09:46.454Z,1.40
2022-09-02T23:12:24.065Z,1.20
2022-09-02T23:14:57.490Z,0.98
2022-09-02T23:17:39.890Z,1.27
2022-09-02T23:20:14.008Z,1.40
2022-09-02T23:25:39.135Z,1.33
2022-09-02T23:28:14.261Z,1.60
2022-09-02T23:30:52.216Z,1.38
2022-09-02T23:33:33.863Z,1.15
2022-09-02T23:36:07.645Z,1.17
2022-09-02T23:38:54.868Z,1.50
2022-09-02T23:41:21.687Z,1.10
2022-09-02T23:43:48.713Z,1.33
2022-09-02T23:46:27.605Z,1.35
2022-09-02T23:49:05.985Z,1.27
2022-09-02T23:51:42.050Z,1.20
2022-09-02T23:54:25.782Z,1.38
2022-09-02T23:57:07.221Z,1.33
